createdAt,value
2019-03-19T00:02:11.985Z,69.95
2019-03-19T00:04:51.474Z,70.24
2019-03-19T00:07:20.669Z,70.10
2019-03-19T00:09:53.962Z,68.95
2019-03-19T00:12:24.212Z,69.97
2019-03-19T00:14:57.553Z,69.26
2019-03-19T00:17:26.774Z,69.17
2019-03-19T00:19:55.920Z,68.73
2019-03-19T00:22:25.878Z,67.96
2019-03-19T00:24:55.197Z,67.47
2019-03-19T00:27:24.297Z,68.44
2019-03-19T00:29:53.396Z,66.24
2019-03-19T00:32:27.748Z,66.84
2019-03-19T00:34:58.210Z,67.12
2019-03-19T00:37:27.867Z,67.19
2019-03-19T00:39:58.048Z,68.61
2019-03-19T00:42:27.526Z,68.20
2019-03-19T00:44:56.680Z,67.95
2019-03-19T00:47:27.675Z,68.82
2019-03-19T00:49:56.815Z,68.89
2019-03-19T00:52:25.879Z,68.84
2019-03-19T00:54:59.365Z,67.23
2019-03-19T00:57:28.759Z,66.88
2019-03-19T01:00:02.473Z,66.55
2019-03-19T01:02:33.123Z,66.17
2019-03-19T01:05:02.267Z,66.46
2019-03-19T01:07:31.714Z,68.35
2019-03-19T01:10:00.828Z,68.42
2019-03-19T01:12:29.890Z,66.87
2019-03-19T01:15:00.719Z,67.78
2019-03-19T01:17:31.022Z,68.10
2019-03-19T01:20:00.134Z,68.14
2019-03-19T01:22:29.647Z,68.33
2019-03-19T01:24:58.724Z,68.66
2019-03-19T01:27:27.873Z,67.79
2019-03-19T01:29:57.173Z,67.93
2019-03-19T01:32:26.811Z,67.34
2019-03-19T01:34:55.991Z,67.19
2019-03-19T01:37:25.050Z,66.30
2019-03-19T01:39:54.470Z,68.54
2019-03-19T01:42:23.649Z,68.32
2019-03-19T01:44:53.151Z,68.68
2019-03-19T01:47:24.988Z,67.40
2019-03-19T01:49:58.203Z,68.17
2019-03-19T01:52:32.503Z,67.68
2019-03-19T01:55:03.169Z,66.38
2019-03-19T01:57:32.272Z,66.75
2019-03-19T02:00:10.631Z,65.31
2019-03-19T02:02:39.703Z,62.52
2019-03-19T02:05:09.008Z,64.93
2019-03-19T02:07:38.073Z,68.61
2019-03-19T02:10:09.263Z,67.81
2019-03-19T02:12:38.355Z,67.99
2019-03-19T02:18:13.355Z,68.60
2019-03-19T02:20:47.189Z,68.33
2019-03-19T02:23:16.243Z,67.25
2019-03-19T02:25:45.348Z,67.37
2019-03-19T02:28:15.326Z,67.85
2019-03-19T02:30:44.398Z,67.22
2019-03-19T02:33:13.469Z,67.88
2019-03-19T02:35:44.186Z,68.26
2019-03-19T02:38:15.411Z,68.05
2019-03-19T02:40:53.818Z,67.01
2019-03-19T02:43:24.305Z,67.39
2019-03-19T02:45:54.878Z,67.66
2019-03-19T02:48:26.181Z,69.48
2019-03-19T02:50:56.280Z,69.09
2019-03-19T02:53:25.372Z,67.09
2019-03-19T02:55:54.795Z,69.07
2019-03-19T02:58:29.995Z,69.64
2019-03-19T03:00:59.189Z,69.28
2019-03-19T03:03:29.828Z,68.69
2019-03-19T03:05:58.852Z,69.86
2019-03-19T03:08:28.374Z,69.75
2019-03-19T03:11:01.672Z,70.13
2019-03-19T03:13:31.920Z,68.60
2019-03-19T03:16:00.998Z,67.57
2019-03-19T03:18:31.518Z,67.57
2019-03-19T03:21:01.104Z,68.52
2019-03-19T03:23:31.299Z,67.64
2019-03-19T03:26:06.884Z,68.74
2019-03-19T03:28:35.979Z,66.16
2019-03-19T03:31:07.381Z,65.18
2019-03-19T03:33:42.492Z,65.72
2019-03-19T03:36:11.552Z,65.40
2019-03-19T03:38:40.617Z,64.56
2019-03-19T03:41:12.198Z,65.21
2019-03-19T03:43:41.301Z,67.11
2019-03-19T03:46:15.441Z,67.64
2019-03-19T03:48:45.674Z,67.49
2019-03-19T03:51:14.747Z,65.42
2019-03-19T03:53:43.868Z,63.78
2019-03-19T03:56:14.337Z,63.00
2019-03-19T03:58:59.844Z,65.79
2019-03-19T04:01:18.877Z,68.67
2019-03-19T04:03:48.220Z,67.00
2019-03-19T04:06:23.372Z,67.10
2019-03-19T04:09:03.808Z,66.68
2019-03-19T04:11:38.041Z,67.97
2019-03-19T04:14:07.340Z,67.25
2019-03-19T04:16:36.480Z,67.80
2019-03-19T04:19:06.913Z,69.03
2019-03-19T04:21:39.126Z,68.42
2019-03-19T04:24:11.273Z,66.18
2019-03-19T04:26:40.407Z,66.69
2019-03-19T04:29:13.384Z,66.97
2019-03-19T04:31:42.527Z,65.09
2019-03-19T04:34:11.640Z,64.64
2019-03-19T04:36:40.702Z,64.63
2019-03-19T04:39:11.520Z,65.75
2019-03-19T04:41:46.648Z,65.76
2019-03-19T04:44:18.856Z,64.20
2019-03-19T04:46:48.098Z,64.50
2019-03-19T04:49:17.428Z,62.53
2019-03-19T04:51:46.496Z,63.95
2019-03-19T04:54:18.114Z,66.91
2019-03-19T04:56:47.181Z,67.29
2019-03-19T04:59:16.672Z,67.77
2019-03-19T05:01:46.055Z,67.62
2019-03-19T05:04:25.757Z,68.00
2019-03-19T05:06:54.882Z,69.20
2019-03-19T05:09:24.468Z,68.33
2019-03-19T05:11:53.559Z,67.44
2019-03-19T05:14:24.180Z,68.38
2019-03-19T05:16:55.822Z,71.12
2019-03-19T05:19:24.916Z,70.59
2019-03-19T05:21:55.790Z,68.63
2019-03-19T05:26:52.925Z,64.22
2019-03-19T05:29:22.066Z,66.79
2019-03-19T05:31:51.183Z,67.97
2019-03-19T05:34:21.582Z,65.24
2019-03-19T05:36:54.403Z,66.33
2019-03-19T05:39:25.146Z,66.75
2019-03-19T05:41:58.791Z,68.10
2019-03-19T05:44:28.123Z,66.55
2019-03-19T05:47:01.373Z,65.98
2019-03-19T05:49:31.831Z,67.46
2019-03-19T05:52:02.561Z,67.13
2019-03-19T05:54:34.024Z,67.47
2019-03-19T05:57:03.122Z,68.86
2019-03-19T05:59:32.258Z,69.34
2019-03-19T06:02:04.135Z,67.75
2019-03-19T06:04:39.279Z,67.65
2019-03-19T06:07:10.669Z,67.92
2019-03-19T06:09:40.133Z,66.27
2019-03-19T06:12:10.522Z,65.76
2019-03-19T06:14:39.692Z,67.23
2019-03-19T06:17:08.898Z,66.96
2019-03-19T06:19:38.276Z,66.56
2019-03-19T06:22:07.372Z,65.26
2019-03-19T06:24:36.578Z,65.49
2019-03-19T06:27:06.719Z,65.59
2019-03-19T06:29:35.815Z,65.70
2019-03-19T06:32:06.268Z,64.94
2019-03-19T06:34:35.417Z,62.56
2019-03-19T06:37:09.451Z,60.27
2019-03-19T06:39:50.789Z,61.15
2019-03-19T06:42:20.214Z,61.12
2019-03-19T06:44:50.855Z,62.24
2019-03-19T06:47:20.894Z,62.86
2019-03-19T06:49:50.172Z,63.68
2019-03-19T06:52:19.436Z,63.53
2019-03-19T06:54:49.237Z,63.66
2019-03-19T06:57:22.005Z,63.24
2019-03-19T06:59:54.282Z,62.61
2019-03-19T07:02:23.686Z,60.54
2019-03-19T07:04:53.903Z,59.93
2019-03-19T07:07:27.091Z,60.82
2019-03-19T07:09:56.862Z,59.76
2019-03-19T07:12:25.976Z,58.94
2019-03-19T07:14:56.573Z,59.66
2019-03-19T07:17:26.284Z,59.52
2019-03-19T07:19:55.547Z,59.76
2019-03-19T07:22:29.908Z,64.53
2019-03-19T07:24:58.956Z,67.20
2019-03-19T07:27:28.193Z,66.24
2019-03-19T07:30:01.432Z,65.52
2019-03-19T07:32:32.964Z,63.70
2019-03-19T07:35:14.242Z,64.07
2019-03-19T07:37:43.321Z,63.57
2019-03-19T07:40:12.791Z,61.96
2019-03-19T07:42:41.895Z,61.77
2019-03-19T07:45:18.449Z,61.08
2019-03-19T07:47:48.018Z,61.50
2019-03-19T07:50:20.257Z,61.54
2019-03-19T07:52:49.691Z,61.79
2019-03-19T07:55:22.211Z,60.56
2019-03-19T07:57:51.706Z,59.91
2019-03-19T08:00:20.835Z,59.12
2019-03-19T08:02:52.909Z,59.16
2019-03-19T08:05:32.309Z,57.71
2019-03-19T08:07:59.558Z,57.04
2019-03-19T08:10:31.213Z,57.66
2019-03-19T08:13:02.334Z,57.24
2019-03-19T08:15:31.434Z,60.23
2019-03-19T08:18:04.401Z,56.45
2019-03-19T08:20:33.537Z,59.32
2019-03-19T08:23:02.708Z,59.11
2019-03-19T08:25:33.032Z,57.57
2019-03-19T08:28:10.543Z,59.29
2019-03-19T08:30:39.800Z,61.40
2019-03-19T08:33:11.609Z,60.48
2019-03-19T08:35:43.403Z,61.38
2019-03-19T08:38:15.259Z,60.84
2019-03-19T08:40:44.423Z,62.11
2019-03-19T08:43:13.789Z,60.99
2019-03-19T08:45:43.339Z,63.28
2019-03-19T08:48:12.513Z,63.45
2019-03-19T08:50:44.893Z,60.96
2019-03-19T08:53:19.900Z,62.16
2019-03-19T08:55:50.509Z,61.54
2019-03-19T08:58:19.578Z,60.21
2019-03-19T09:00:48.743Z,59.56
2019-03-19T09:03:20.578Z,58.01
2019-03-19T09:05:50.018Z,57.37
2019-03-19T09:08:24.863Z,56.53
2019-03-19T09:10:59.319Z,56.04
2019-03-19T09:13:28.638Z,55.95
2019-03-19T09:15:58.008Z,57.16
2019-03-19T09:18:27.115Z,55.49
2019-03-19T09:20:59.112Z,55.42
2019-03-19T09:23:33.396Z,55.12
2019-03-19T09:26:05.265Z,54.56
2019-03-19T09:28:34.465Z,56.53
2019-03-19T09:31:04.140Z,54.03
2019-03-19T09:33:34.932Z,51.71
2019-03-19T09:36:06.351Z,54.54
2019-03-19T09:38:37.207Z,53.98
2019-03-19T09:41:09.489Z,50.84
2019-03-19T09:43:40.615Z,50.74
2019-03-19T09:46:11.005Z,52.81
2019-03-19T09:48:43.386Z,51.13
2019-03-19T09:51:17.018Z,49.26
2019-03-19T09:53:51.005Z,50.64
2019-03-19T09:56:24.778Z,51.29
2019-03-19T09:58:55.415Z,50.23
2019-03-19T10:01:26.985Z,53.17
2019-03-19T10:03:56.512Z,52.42
2019-03-19T10:06:26.379Z,53.52
2019-03-19T10:08:55.690Z,54.38
2019-03-19T10:11:27.895Z,55.51
2019-03-19T10:14:01.728Z,56.42
2019-03-19T10:16:30.914Z,56.12
2019-03-19T10:19:02.846Z,56.60
2019-03-19T10:21:33.888Z,56.66
2019-03-19T10:24:07.539Z,56.37
2019-03-19T10:26:36.705Z,56.05
2019-03-19T10:29:07.769Z,55.44
2019-03-19T10:31:38.157Z,55.06
2019-03-19T10:34:09.840Z,52.55
2019-03-19T10:36:38.956Z,49.36
2019-03-19T10:39:11.783Z,49.54
2019-03-19T10:41:41.436Z,49.68
2019-03-19T10:44:11.507Z,47.57
2019-03-19T10:46:47.829Z,44.92
2019-03-19T10:49:17.759Z,51.17
2019-03-19T10:51:50.230Z,52.54
2019-03-19T10:54:19.812Z,52.85
2019-03-19T10:56:52.315Z,54.31
2019-03-19T10:59:22.468Z,56.03
2019-03-19T11:01:55.213Z,54.37
2019-03-19T11:04:24.862Z,52.94
2019-03-19T11:06:55.429Z,52.13
2019-03-19T11:09:24.853Z,52.45
2019-03-19T11:11:54.141Z,52.16
2019-03-19T11:14:26.432Z,51.22
2019-03-19T11:16:58.676Z,51.19
2019-03-19T11:19:29.007Z,50.80
2019-03-19T11:21:58.305Z,50.41
2019-03-19T11:24:27.498Z,49.29
2019-03-19T11:26:56.836Z,48.67
2019-03-19T11:29:29.097Z,48.38
2019-03-19T11:32:03.817Z,45.68
2019-03-19T11:34:34.337Z,45.44
2019-03-19T11:37:05.677Z,46.35
2019-03-19T11:39:44.359Z,46.02
2019-03-19T11:42:16.653Z,43.43
2019-03-19T11:44:46.404Z,43.40
2019-03-19T11:47:16.620Z,43.37
2019-03-19T11:49:45.792Z,41.85
2019-03-19T11:52:17.230Z,42.39
2019-03-19T11:54:49.848Z,42.80
2019-03-19T11:57:22.669Z,43.45
2019-03-19T11:59:55.391Z,42.02
2019-03-19T12:02:26.444Z,42.42
2019-03-19T12:04:56.729Z,40.23
2019-03-19T12:07:30.491Z,40.58
2019-03-19T12:09:59.705Z,39.82
2019-03-19T12:12:30.737Z,42.67
2019-03-19T12:14:59.884Z,44.33
2019-03-19T12:17:30.647Z,45.80
2019-03-19T12:20:01.032Z,46.14
2019-03-19T12:22:30.174Z,46.31
2019-03-19T12:25:07.227Z,47.56
2019-03-19T12:27:41.061Z,47.48
2019-03-19T12:30:21.479Z,48.65
2019-03-19T12:32:42.272Z,47.43
2019-03-19T12:35:15.338Z,47.08
2019-03-19T12:37:46.017Z,45.48
2019-03-19T12:40:15.217Z,42.81
2019-03-19T12:42:45.887Z,41.61
2019-03-19T12:45:15.635Z,41.80
2019-03-19T12:47:49.012Z,40.62
2019-03-19T12:50:18.625Z,39.78
2019-03-19T12:52:47.811Z,38.92
2019-03-19T12:55:18.589Z,38.21
2019-03-19T12:57:47.759Z,38.20
2019-03-19T13:00:19.523Z,45.55
2019-03-19T13:02:50.668Z,45.40
2019-03-19T13:05:22.527Z,43.83
2019-03-19T13:07:58.812Z,47.35
2019-03-19T13:10:27.984Z,47.29
2019-03-19T13:12:57.994Z,46.21
2019-03-19T13:15:27.379Z,46.49
2019-03-19T13:18:00.873Z,44.90
2019-03-19T13:20:39.610Z,45.01
2019-03-19T13:23:17.188Z,47.52
2019-03-19T13:25:46.330Z,44.88
2019-03-19T13:28:15.418Z,42.99
2019-03-19T13:30:45.617Z,40.47
2019-03-19T13:33:16.469Z,40.11
2019-03-19T13:35:45.633Z,40.97
2019-03-19T13:38:16.041Z,39.62
2019-03-19T13:40:45.254Z,36.31
2019-03-19T13:43:25.605Z,34.69
2019-03-19T13:45:57.908Z,35.33
2019-03-19T13:48:27.126Z,36.23
2019-03-19T13:51:06.902Z,36.13
2019-03-19T13:53:36.246Z,37.26
2019-03-19T13:56:07.311Z,37.18
2019-03-19T13:58:36.441Z,35.61
2019-03-19T14:01:05.737Z,36.91
2019-03-19T14:03:37.573Z,37.51
2019-03-19T14:06:10.353Z,36.41
2019-03-19T14:08:39.569Z,40.74
2019-03-19T14:11:09.871Z,42.45
2019-03-19T14:13:39.965Z,44.17
2019-03-19T14:16:11.039Z,42.61
2019-03-19T14:18:41.939Z,43.92
2019-03-19T14:21:12.182Z,43.52
2019-03-19T14:23:42.096Z,41.10
2019-03-19T14:26:12.246Z,40.11
2019-03-19T14:28:41.326Z,39.80
2019-03-19T14:31:18.984Z,40.36
2019-03-19T14:33:54.354Z,41.62
2019-03-19T14:36:26.981Z,41.34
2019-03-19T14:38:56.162Z,37.75
2019-03-19T14:41:30.579Z,37.37
2019-03-19T14:44:07.211Z,36.50
2019-03-19T14:46:44.717Z,35.24
2019-03-19T14:49:13.823Z,35.24
2019-03-19T14:51:42.980Z,34.74
2019-03-19T14:54:14.070Z,36.21
2019-03-19T14:56:48.632Z,35.63
2019-03-19T14:59:17.767Z,34.69
2019-03-19T15:01:46.854Z,33.66
2019-03-19T15:04:17.491Z,35.91
2019-03-19T15:06:48.970Z,35.43
2019-03-19T15:09:18.125Z,32.15
2019-03-19T15:11:47.352Z,32.70
2019-03-19T15:14:16.551Z,33.58
2019-03-19T15:16:49.796Z,32.50
2019-03-19T15:19:19.681Z,35.54
2019-03-19T15:21:50.573Z,34.24
2019-03-19T15:24:24.395Z,33.52
2019-03-19T15:26:54.575Z,33.69
2019-03-19T15:29:24.206Z,32.74
2019-03-19T15:31:53.516Z,33.44
2019-03-19T15:34:23.088Z,35.21
2019-03-19T15:36:54.547Z,36.22
2019-03-19T15:39:23.896Z,35.70
2019-03-19T15:41:53.254Z,34.62
2019-03-19T15:44:24.890Z,34.49
2019-03-19T15:46:56.789Z,35.00
2019-03-19T15:49:26.393Z,34.86
2019-03-19T15:51:56.263Z,36.10
2019-03-19T15:54:26.845Z,35.18
2019-03-19T15:56:56.174Z,35.14
2019-03-19T15:59:26.219Z,35.88
2019-03-19T16:01:55.314Z,34.90
2019-03-19T16:04:26.547Z,34.75
2019-03-19T16:07:04.389Z,34.85
2019-03-19T16:09:39.828Z,34.46
2019-03-19T16:12:07.540Z,34.55
2019-03-19T16:14:36.840Z,34.90
2019-03-19T16:17:06.105Z,34.58
2019-03-19T16:19:35.172Z,33.66
2019-03-19T16:22:08.773Z,33.05
2019-03-19T16:24:37.867Z,35.89
2019-03-19T16:27:12.265Z,36.60
2019-03-19T16:29:41.376Z,36.34
2019-03-19T16:32:12.146Z,37.06
2019-03-19T16:34:41.517Z,37.27
2019-03-19T16:37:10.649Z,37.55
2019-03-19T16:39:39.736Z,37.40
2019-03-19T16:42:11.310Z,37.11
2019-03-19T16:44:40.395Z,38.29
2019-03-19T16:47:09.775Z,37.02
2019-03-19T16:49:40.002Z,37.30
2019-03-19T16:52:09.091Z,37.19
2019-03-19T16:54:40.669Z,37.01
2019-03-19T16:57:09.764Z,36.84
2019-03-19T16:59:39.653Z,36.90
2019-03-19T17:02:11.840Z,37.25
2019-03-19T17:04:40.934Z,37.13
2019-03-19T17:07:10.016Z,38.24
2019-03-19T17:09:39.080Z,37.82
2019-03-19T17:12:09.486Z,38.61
2019-03-19T17:14:40.125Z,39.23
2019-03-19T17:17:16.280Z,39.26
2019-03-19T17:19:45.302Z,41.14
2019-03-19T17:22:14.408Z,40.12
2019-03-19T17:24:43.535Z,39.84
2019-03-19T17:27:12.708Z,39.83
2019-03-19T17:29:43.422Z,39.88
2019-03-19T17:32:13.541Z,39.89
2019-03-19T17:34:44.018Z,40.21
2019-03-19T17:37:14.689Z,39.77
2019-03-19T17:39:43.798Z,39.65
2019-03-19T17:42:12.916Z,39.57
2019-03-19T17:44:42.052Z,39.75
2019-03-19T17:47:13.244Z,39.53
2019-03-19T17:49:46.022Z,39.56
2019-03-19T17:52:15.587Z,39.70
2019-03-19T17:54:49.469Z,40.19
2019-03-19T17:57:18.836Z,40.55
2019-03-19T17:59:52.006Z,40.69
2019-03-19T18:02:24.465Z,40.19
2019-03-19T18:04:54.411Z,39.58
2019-03-19T18:07:23.492Z,40.63
2019-03-19T18:09:52.610Z,39.64
2019-03-19T18:12:25.873Z,39.23
2019-03-19T18:14:55.748Z,39.13
2019-03-19T18:17:24.944Z,38.57
2019-03-19T18:19:55.276Z,39.12
2019-03-19T18:22:27.186Z,39.29
2019-03-19T18:24:57.902Z,39.34
2019-03-19T18:27:27.067Z,39.62
2019-03-19T18:29:59.988Z,39.54
2019-03-19T18:32:35.095Z,39.11
2019-03-19T18:35:04.479Z,39.52
2019-03-19T18:37:33.666Z,39.17
2019-03-19T18:40:09.536Z,39.20
2019-03-19T18:42:38.309Z,39.24
2019-03-19T18:45:07.703Z,38.91
2019-03-19T18:47:38.268Z,39.20
2019-03-19T18:50:09.490Z,39.12
2019-03-19T18:52:38.703Z,39.59
2019-03-19T18:55:12.165Z,39.76
2019-03-19T18:57:43.802Z,39.71
2019-03-19T19:00:18.676Z,39.90
2019-03-19T19:02:50.165Z,40.06
2019-03-19T19:05:18.933Z,39.71
2019-03-19T19:07:49.150Z,39.61
2019-03-19T19:10:20.865Z,39.84
2019-03-19T19:12:49.155Z,39.54
2019-03-19T19:15:18.393Z,39.29
2019-03-19T19:17:47.529Z,39.86
2019-03-19T19:20:42.663Z,40.18
2019-03-19T19:23:13.094Z,41.68
2019-03-19T19:25:46.417Z,43.48
2019-03-19T19:28:17.569Z,43.06
2019-03-19T19:30:46.546Z,42.27
2019-03-19T19:33:15.663Z,42.08
2019-03-19T19:35:46.062Z,42.51
2019-03-19T19:38:16.640Z,43.57
2019-03-19T19:40:45.805Z,43.38
2019-03-19T19:43:14.920Z,42.88
2019-03-19T19:45:44.420Z,41.24
2019-03-19T19:48:16.432Z,41.15
2019-03-19T19:50:47.323Z,42.22
2019-03-19T19:53:17.570Z,41.08
2019-03-19T19:55:50.744Z,40.70
2019-03-19T19:58:19.988Z,40.29
2019-03-19T20:00:49.193Z,40.78
2019-03-19T20:03:18.412Z,40.34
2019-03-19T20:05:47.575Z,39.74
2019-03-19T20:08:17.776Z,40.28
2019-03-19T20:10:50.433Z,41.01
2019-03-19T20:13:19.577Z,40.95
2019-03-19T20:15:48.718Z,42.07
2019-03-19T20:18:17.798Z,42.33
2019-03-19T20:20:48.229Z,43.20
2019-03-19T20:23:18.867Z,43.03
2019-03-19T20:25:47.960Z,42.90
2019-03-19T20:28:18.581Z,42.88
2019-03-19T20:30:50.092Z,42.62
2019-03-19T20:33:25.316Z,44.03
2019-03-19T20:35:55.765Z,45.60
2019-03-19T20:38:25.218Z,46.46
2019-03-19T20:40:54.337Z,47.99
2019-03-19T20:43:26.397Z,47.14
2019-03-19T20:45:55.522Z,47.98
2019-03-19T20:48:24.604Z,47.85
2019-03-19T20:50:57.019Z,49.19
2019-03-19T20:53:27.046Z,47.32
2019-03-19T20:55:58.860Z,45.81
2019-03-19T20:58:29.618Z,45.18
2019-03-19T21:01:04.986Z,45.31
2019-03-19T21:03:36.308Z,46.71
2019-03-19T21:06:08.499Z,48.46
2019-03-19T21:08:49.931Z,50.09
2019-03-19T21:11:20.610Z,50.01
2019-03-19T21:13:58.188Z,50.46
2019-03-19T21:16:29.516Z,51.63
2019-03-19T21:19:03.190Z,51.03
2019-03-19T21:21:32.338Z,51.31
2019-03-19T21:24:01.430Z,51.07
2019-03-19T21:26:30.607Z,50.73
2019-03-19T21:29:00.764Z,50.67
2019-03-19T21:31:35.552Z,50.06
2019-03-19T21:34:04.672Z,49.41
2019-03-19T21:36:36.105Z,50.25
2019-03-19T21:39:09.810Z,49.53
2019-03-19T21:41:38.945Z,50.24
2019-03-19T21:44:09.380Z,49.41
2019-03-19T21:46:38.426Z,49.12
2019-03-19T21:49:11.048Z,49.15
2019-03-19T21:51:41.093Z,48.65
2019-03-19T21:54:11.752Z,49.79
2019-03-19T21:56:43.201Z,50.65
2019-03-19T21:59:12.301Z,51.84
2019-03-19T22:01:41.776Z,52.18
2019-03-19T22:04:10.925Z,53.08
2019-03-19T22:06:42.587Z,52.90
2019-03-19T22:09:12.933Z,51.75
2019-03-19T22:11:43.519Z,51.06
2019-03-19T22:14:12.703Z,51.35
2019-03-19T22:16:43.960Z,51.54
2019-03-19T22:19:14.286Z,51.46
2019-03-19T22:21:43.493Z,50.54
2019-03-19T22:24:14.311Z,50.10
2019-03-19T22:26:46.417Z,52.53
2019-03-19T22:29:17.482Z,53.31
2019-03-19T22:31:46.587Z,54.02
2019-03-19T22:34:15.744Z,55.02
2019-03-19T22:36:47.308Z,55.42
2019-03-19T22:39:16.453Z,55.09
2019-03-19T22:41:45.670Z,55.70
2019-03-19T22:44:15.872Z,55.77
2019-03-19T22:46:47.550Z,55.77
2019-03-19T22:49:16.648Z,54.87
2019-03-19T22:51:47.099Z,54.86
2019-03-19T22:54:16.157Z,54.58
2019-03-19T22:56:45.353Z,54.31
2019-03-19T22:59:14.551Z,54.06
2019-03-19T23:01:43.806Z,52.99
2019-03-19T23:04:12.975Z,54.05
2019-03-19T23:06:42.464Z,54.89
2019-03-19T23:09:11.761Z,55.67
2019-03-19T23:11:46.467Z,55.46
2019-03-19T23:14:15.202Z,55.77
2019-03-19T23:16:44.319Z,56.34
2019-03-19T23:19:20.234Z,56.43
2019-03-19T23:21:50.657Z,56.96
2019-03-19T23:24:26.279Z,56.46
2019-03-19T23:26:55.833Z,57.14
2019-03-19T23:29:29.007Z,58.04
2019-03-19T23:31:58.268Z,58.18
2019-03-19T23:34:38.210Z,58.29
2019-03-19T23:37:02.655Z,57.82
2019-03-19T23:39:34.239Z,57.62
2019-03-19T23:42:03.369Z,57.65
2019-03-19T23:44:37.123Z,58.60
2019-03-19T23:47:07.021Z,58.55
2019-03-19T23:49:36.147Z,60.31
2019-03-19T23:52:10.149Z,60.30
2019-03-19T23:54:39.254Z,60.93
2019-03-19T23:57:08.792Z,61.04
2019-03-19T23:59:42.374Z,61.57
